Time;durP1;ratioP1;P1;durP2;ratioP2;P2;SDS_P1;SDS_P2;PMS_P1;PMS_P2;Temp;Humidity;BMP_temperature;BMP_pressure;BME280_temperature;BME280_humidity;BME280_pressure;Samples;Min_cycle;Max_cycle;Signal;HPM_P1;HPM_P2
2022/11/02 00:00:22;;;;;;;;;0.67;0.67;;;;;15.63;60.77;101448.25;5039347;28;46761;-63
2022/11/02 00:02:47;;;;;;;;;2.67;0.33;;;;;15.58;61.21;101449.97;5042814;28;45423;-63
2022/11/02 00:05:13;;;;;;;;;1.67;1.67;;;;;15.49;61.73;101448.00;5037350;28;46768;-64
2022/11/02 00:07:40;;;;;;;;;1.33;0.33;;;;;15.46;61.88;101440.78;5034594;28;45372;-65
2022/11/02 00:10:06;;;;;;;;;0.67;0.67;;;;;15.51;62.01;101443.56;5037265;28;46344;-64
2022/11/02 00:12:32;;;;;;;;;0.00;0.00;;;;;15.46;62.59;101440.78;5036298;28;45321;-64
2022/11/02 00:14:57;;;;;;;;;3.00;0.67;;;;;15.42;62.68;101438.91;5039712;28;45326;-64
2022/11/02 00:17:23;;;;;;;;;2.67;1.00;;;;;15.41;63.05;101445.19;5043128;28;45777;-63
2022/11/02 00:19:48;;;;;;;;;1.00;1.00;;;;;15.38;63.43;101444.22;5037917;28;45288;-63
2022/11/02 00:22:14;;;;;;;;;4.67;0.67;;;;;15.36;63.59;101449.59;5036575;28;45482;-63
2022/11/02 00:24:39;;;;;;;;;1.67;0.00;;;;;15.36;63.51;101454.97;5036845;28;45456;-64
2022/11/02 00:27:05;;;;;;;;;0.00;0.00;;;;;15.32;63.56;101453.09;5036575;28;45599;-64
2022/11/02 00:29:32;;;;;;;;;1.00;1.00;;;;;15.37;63.91;101470.22;5040456;28;46275;-62
2022/11/02 00:31:57;;;;;;;;;2.33;0.67;;;;;15.36;64.02;101470.19;5033066;28;45382;-63
2022/11/02 00:34:22;;;;;;;;;1.00;0.67;;;;;15.36;64.03;101467.50;5034486;28;45555;-64
2022/11/02 00:36:48;;;;;;;;;1.67;1.67;;;;;15.34;63.81;101477.34;5032836;28;45652;-63
2022/11/02 00:39:13;;;;;;;;;0.00;0.00;;;;;15.30;63.83;101479.97;5033357;28;45539;-62
2022/11/02 00:41:38;;;;;;;;;2.33;1.00;;;;;15.25;63.44;101480.78;5039518;28;53993;-64
2022/11/02 00:44:04;;;;;;;;;0.00;0.00;;;;;15.21;63.29;101478.91;5048078;28;45359;-63
2022/11/02 00:46:29;;;;;;;;;4.00;1.00;;;;;15.24;63.51;101481.66;5055568;28;45327;-63
2022/11/02 00:48:54;;;;;;;;;1.00;1.00;;;;;15.20;62.92;101483.38;5048590;28;59612;-63
2022/11/02 00:51:20;;;;;;;;;6.67;5.67;;;;;15.19;63.15;101497.72;5048558;28;44994;-64
2022/11/02 00:53:45;;;;;;;;;1.67;0.00;;;;;15.16;62.85;101485.97;5048003;28;45653;-63
2022/11/02 00:56:10;;;;;;;;;1.33;1.00;;;;;15.14;62.87;101490.44;5051274;28;45573;-64
2022/11/02 00:58:36;;;;;;;;;1.33;1.33;;;;;15.13;62.79;101496.69;5054477;28;46070;-63
2022/11/02 01:01:04;;;;;;;;;1.00;0.00;;;;;15.13;62.93;101497.63;5050702;28;51805;-64
2022/11/02 01:03:29;;;;;;;;;3.00;1.33;;;;;15.13;62.78;101497.63;5061612;28;45278;-62
2022/11/02 01:05:54;;;;;;;;;2.00;0.00;;;;;15.10;62.71;101502.94;5058179;28;52208;-63
2022/11/02 01:08:20;;;;;;;;;0.00;0.00;;;;;15.06;62.56;101507.34;5036347;28;46118;-63
2022/11/02 01:10:45;;;;;;;;;3.67;1.00;;;;;15.01;62.18;101500.94;5058964;28;44966;-63
2022/11/02 01:13:10;;;;;;;;;1.67;1.33;;;;;15.01;61.88;101510.81;5059144;28;44909;-63
2022/11/02 01:15:36;;;;;;;;;3.00;1.00;;;;;14.98;61.96;101511.66;5056040;28;50201;-63
2022/11/02 01:18:01;;;;;;;;;5.33;1.00;;;;;15.00;61.74;101515.28;5054816;28;45190;-63
2022/11/02 01:20:26;;;;;;;;;4.67;1.67;;;;;14.92;61.59;101498.06;5065522;28;45381;-64
2022/11/02 01:22:52;;;;;;;;;3.67;0.67;;;;;15.00;61.62;101515.28;5060275;28;45086;-62
2022/11/02 01:25:17;;;;;;;;;4.00;1.00;;;;;14.94;61.79;101501.69;5055948;28;44957;-62
2022/11/02 01:27:42;;;;;;;;;4.33;1.00;;;;;14.99;61.60;101515.25;5055884;28;46015;-63
2022/11/02 01:30:08;;;;;;;;;2.33;1.00;;;;;14.98;61.81;101514.34;5056875;28;59533;-63
2022/11/02 01:32:33;;;;;;;;;2.00;2.00;;;;;14.91;61.92;101515.09;5054475;28;45205;-63
2022/11/02 01:34:59;;;;;;;;;0.67;0.33;;;;;14.89;61.97;101509.66;5049562;28;45491;-63
2022/11/02 01:37:24;;;;;;;;;2.33;1.00;;;;;14.93;62.01;101518.72;5037604;28;47222;-65
2022/11/02 01:39:50;;;;;;;;;0.33;0.33;;;;;14.91;62.23;101517.78;5035908;28;45874;-64
2022/11/02 01:42:21;;;;;;;;;0.00;0.00;;;;;14.89;62.60;101520.44;5045859;28;49757;-63
2022/11/02 01:44:47;;;;;;;;;1.00;1.00;;;;;14.86;62.39;101516.78;5038333;28;45431;-63
2022/11/02 01:47:12;;;;;;;;;2.33;1.00;;;;;14.87;62.60;101532.97;5041096;28;46204;-65
2022/11/02 01:49:42;;;;;;;;;3.00;0.00;;;;;14.84;62.95;101523.91;5039438;28;45458;-64
2022/11/02 01:52:10;;;;;;;;;4.00;0.33;;;;;14.81;62.97;101537.28;5037690;28;46098;-62
2022/11/02 01:54:47;;;;;;;;;3.00;1.00;;;;;14.76;62.88;101534.50;5039814;28;45283;-63
2022/11/02 01:57:18;;;;;;;;;0.67;0.33;;;;;14.70;62.88;101539.75;5045878;28;46275;-62
2022/11/02 01:59:53;;;;;;;;;3.33;1.00;;;;;14.66;63.22;101532.50;5036360;28;45637;-63
2022/11/02 02:02:23;;;;;;;;;3.00;1.33;;;;;14.61;63.25;101534.16;5040530;28;46879;-63
2022/11/02 02:04:56;;;;;;;;;1.00;0.33;;;;;14.62;63.44;101542.28;5039306;28;45440;-63
2022/11/02 02:07:24;;;;;;;;;1.67;1.00;;;;;14.59;63.87;101536.81;5038952;28;46285;-62
2022/11/02 02:09:51;;;;;;;;;4.67;2.00;;;;;14.57;63.39;101541.25;5034235;28;45612;-63
2022/11/02 02:12:18;;;;;;;;;2.00;2.00;;;;;14.55;63.45;101546.56;5040710;28;45267;-63
2022/11/02 02:14:44;;;;;;;;;4.33;2.00;;;;;14.52;63.70;101543.81;5048808;28;45524;-62
2022/11/02 02:17:19;;;;;;;;;2.67;2.33;;;;;14.46;63.65;101550.84;5039773;28;46410;-64
2022/11/02 02:19:49;;;;;;;;;5.00;1.00;;;;;14.47;64.07;101550.88;5035650;28;45448;-62
2022/11/02 02:22:39;;;;;;;;;3.67;2.00;;;;;14.46;64.25;101554.41;5038395;28;45386;-63
2022/11/02 02:25:25;;;;;;;;;3.33;1.00;;;;;14.44;64.25;101561.53;5035173;28;45713;-63
2022/11/02 02:28:12;;;;;;;;;1.00;1.00;;;;;14.42;64.27;101560.63;5036818;28;45433;-64
2022/11/02 02:30:54;;;;;;;;;1.00;1.00;;;;;14.38;64.34;101561.41;5037867;28;45576;-64
2022/11/02 02:33:29;;;;;;;;;1.00;1.00;;;;;14.39;64.73;101560.53;5036432;28;45486;-62
2022/11/02 02:36:04;;;;;;;;;3.00;0.00;;;;;14.36;64.61;101552.38;5035388;28;47013;-63
2022/11/02 02:38:35;;;;;;;;;1.67;1.00;;;;;14.31;64.74;101556.75;5039714;28;45559;-63
2022/11/02 02:41:12;;;;;;;;;2.33;1.00;;;;;14.32;64.61;101561.25;5034347;28;45599;-63
2022/11/02 02:43:43;;;;;;;;;2.00;1.00;;;;;14.32;64.72;101572.00;5045166;28;45517;-63
2022/11/02 02:46:17;;;;;;;;;1.00;1.00;;;;;14.30;64.58;101571.06;5037945;28;45696;-62
2022/11/02 02:48:45;;;;;;;;;6.67;2.67;;;;;14.30;64.61;101571.94;5038831;28;45485;-63
2022/11/02 02:51:17;;;;;;;;;3.00;0.00;;;;;14.29;64.37;101566.56;5037260;28;45522;-63
2022/11/02 02:53:50;;;;;;;;;2.00;0.33;;;;;14.27;64.28;101573.66;5044554;28;45390;-62
2022/11/02 02:56:20;;;;;;;;;4.33;1.67;;;;;14.24;64.18;101562.84;5038499;28;45858;-63
2022/11/02 02:58:58;;;;;;;;;3.00;2.00;;;;;14.25;64.09;101575.41;5040544;28;45709;-62
2022/11/02 03:01:25;;;;;;;;;5.33;1.00;;;;;13.55;64.56;101465.34;5033975;28;45315;-64
2022/11/02 03:03:50;;;;;;;;;3.00;1.67;;;;;14.23;64.65;101571.78;5038089;28;45515;-62
2022/11/02 03:06:25;;;;;;;;;2.67;2.00;;;;;14.21;64.33;101582.50;5039437;28;45523;-62
2022/11/02 03:09:01;;;;;;;;;6.67;1.67;;;;;14.25;64.24;101588.84;5033792;28;46005;-63
2022/11/02 03:11:27;;;;;;;;;0.33;0.00;;;;;14.24;64.13;101587.03;5039516;28;45464;-64
2022/11/02 03:14:17;;;;;;;;;5.00;1.33;;;;;14.24;64.79;101595.09;5039679;28;45682;-62
2022/11/02 03:16:59;;;;;;;;;1.00;1.00;;;;;14.24;64.67;101589.72;5036590;28;45556;-64
2022/11/02 03:19:34;;;;;;;;;0.00;0.00;;;;;14.23;64.79;101598.66;5033929;28;46208;-64
2022/11/02 03:22:32;;;;;;;;;1.33;1.00;;;;;14.22;64.61;101595.03;5033725;28;45461;-62
2022/11/02 03:25:11;;;;;;;;;2.00;2.00;;;;;14.22;64.48;101602.22;5041392;28;45603;-63
2022/11/02 03:27:47;;;;;;;;;3.00;1.33;;;;;14.24;64.72;101598.72;5043089;28;45440;-64
2022/11/02 03:30:18;;;;;;;;;1.00;1.00;;;;;14.24;65.09;101596.00;5031641;28;45520;-61
2022/11/02 03:32:54;;;;;;;;;2.33;1.00;;;;;14.24;64.87;101601.38;5034415;28;45582;-64
2022/11/02 03:35:30;;;;;;;;;4.00;2.00;;;;;14.18;64.87;101603.91;5033869;28;45450;-63
2022/11/02 03:38:00;;;;;;;;;4.33;1.33;;;;;14.16;65.16;101609.25;5034339;28;46001;-63
2022/11/02 03:40:32;;;;;;;;;3.33;0.33;;;;;14.11;64.86;101602.84;5038771;28;45735;-63
2022/11/02 03:42:59;;;;;;;;;2.33;2.00;;;;;14.09;64.75;101601.91;5037994;28;45711;-63
2022/11/02 03:45:35;;;;;;;;;8.00;0.00;;;;;14.11;64.82;101607.31;5038782;28;45446;-62
2022/11/02 03:48:05;;;;;;;;;3.33;2.00;;;;;14.12;65.05;101620.81;5038208;28;45390;-62
2022/11/02 03:50:33;;;;;;;;;3.00;2.00;;;;;14.13;64.65;101625.28;5034169;28;45757;-62
2022/11/02 03:53:30;;;;;;;;;1.33;0.00;;;;;14.14;64.95;101643.25;5035523;28;45464;-64
2022/11/02 03:56:02;;;;;;;;;1.33;1.00;;;;;14.15;64.68;101636.97;5032609;28;45496;-64
2022/11/02 03:58:28;;;;;;;;;2.00;0.33;;;;;14.14;64.88;101636.97;5032969;28;45745;-62
2022/11/02 04:00:59;;;;;;;;;1.00;1.00;;;;;14.22;64.50;101664.03;5032138;28;45975;-64
2022/11/02 04:03:27;;;;;;;;;1.67;1.00;;;;;14.16;64.50;101657.63;5037971;28;46956;-66
2022/11/02 04:05:52;;;;;;;;;4.33;0.67;;;;;14.22;64.51;101664.03;5022049;28;45523;-64
2022/11/02 04:08:24;;;;;;;;;2.67;1.00;;;;;14.25;64.20;101666.78;5035284;28;45505;-63
2022/11/02 04:16:20;;;;;;;;;6.33;1.00;;;;;14.19;64.10;101665.78;5041330;28;45446;-63
2022/11/02 04:19:30;;;;;;;;;5.33;1.67;;;;;14.26;63.82;101692.81;5034281;28;45529;-63
2022/11/02 04:21:31;;;;;;;;;2.00;1.00;;;;;14.28;63.87;101691.97;5022176;28;45383;-63
2022/11/02 04:26:41;;;;;;;;;2.00;1.33;;;;;14.26;63.57;101682.06;5033001;28;45354;-63
2022/11/02 04:29:07;;;;;;;;;2.00;0.33;;;;;14.32;63.25;101698.34;5034532;28;45560;-63
2022/11/02 04:31:32;;;;;;;;;1.00;1.00;;;;;14.32;63.49;101709.09;5038065;28;46504;-63
2022/11/02 04:33:58;;;;;;;;;3.33;3.00;;;;;14.29;63.67;101711.72;5042625;28;45535;-63
2022/11/02 04:36:25;;;;;;;;;5.33;1.33;;;;;14.25;63.01;101708.00;5036117;28;45850;-62
2022/11/02 04:38:51;;;;;;;;;2.67;2.00;;;;;14.26;63.30;101715.22;5040021;28;46296;-62
2022/11/02 04:44:03;;;;;;;;;3.33;2.00;;;;;14.19;63.18;101708.78;5036147;28;45622;-62
2022/11/02 04:46:31;;;;;;;;;2.67;2.00;;;;;14.20;62.91;101712.38;5036710;28;45558;-63
2022/11/02 04:48:57;;;;;;;;;1.33;1.00;;;;;14.13;62.82;101713.06;5037010;28;45602;-64
2022/11/02 04:51:24;;;;;;;;;3.00;1.00;;;;;14.07;62.92;101707.53;5041738;28;46130;-63
2022/11/02 04:53:51;;;;;;;;;4.33;3.00;;;;;14.08;63.30;101715.63;5039504;28;45495;-63
2022/11/02 04:56:17;;;;;;;;;1.00;1.00;;;;;14.09;63.06;101717.47;5038845;28;45541;-64
2022/11/02 04:58:42;;;;;;;;;3.33;0.67;;;;;14.05;63.26;101715.53;5040461;28;45484;-63
2022/11/02 05:01:12;;;;;;;;;5.00;3.33;;;;;14.05;63.57;101736.13;5037403;28;45490;-62
2022/11/02 05:03:38;;;;;;;;;6.67;4.00;;;;;14.06;63.39;101740.66;5037607;28;46268;-63
2022/11/02 05:06:04;;;;;;;;;4.67;2.00;;;;;14.07;62.84;101748.72;5040941;28;45476;-63
2022/11/02 05:08:29;;;;;;;;;5.67;2.00;;;;;14.06;63.15;101724.53;5038686;28;45489;-65
2022/11/02 05:10:57;;;;;;;;;3.67;2.00;;;;;14.03;63.38;101728.03;5038435;28;47352;-63
2022/11/02 05:13:23;;;;;;;;;8.00;1.67;;;;;13.98;63.24;101727.91;5039047;28;45696;-62
2022/11/02 05:15:49;;;;;;;;;3.33;2.00;;;;;14.08;63.25;101755.03;5047518;28;45449;-63
2022/11/02 05:18:14;;;;;;;;;4.00;1.00;;;;;14.00;63.33;101736.91;5036605;28;45703;-63
2022/11/02 05:20:39;;;;;;;;;6.00;2.00;;;;;14.03;63.55;101749.53;5040872;28;45833;-62
2022/11/02 05:23:05;;;;;;;;;3.00;0.00;;;;;14.05;63.22;101749.56;5038270;28;45496;-63
2022/11/02 05:25:31;;;;;;;;;6.00;1.67;;;;;14.08;63.07;101755.94;5039706;28;45370;-63
2022/11/02 05:27:56;;;;;;;;;4.00;4.00;;;;;14.07;63.09;101762.16;5043190;28;45395;-63
2022/11/02 05:30:22;;;;;;;;;1.00;1.00;;;;;14.06;63.24;101762.16;5035975;28;45982;-62
2022/11/02 05:32:47;;;;;;;;;4.00;2.00;;;;;14.09;62.91;101767.59;5044196;28;45513;-63
2022/11/02 05:35:12;;;;;;;;;6.00;4.00;;;;;14.00;63.21;101757.50;5038606;28;45566;-63
2022/11/02 05:37:38;;;;;;;;;1.67;1.67;;;;;14.05;63.31;101771.97;5038002;28;45390;-63
2022/11/02 05:40:04;;;;;;;;;3.00;1.00;;;;;13.94;63.33;101750.19;5037041;28;67263;-63
2022/11/02 05:42:29;;;;;;;;;1.00;1.00;;;;;13.99;63.33;101775.41;5038990;28;45484;-63
2022/11/02 05:44:54;;;;;;;;;1.67;1.67;;;;;14.00;62.96;101773.63;5036415;28;45812;-63
2022/11/02 05:47:20;;;;;;;;;3.00;3.00;;;;;13.95;63.31;101769.91;5035908;28;45450;-63
2022/11/02 05:49:45;;;;;;;;;7.33;2.00;;;;;13.97;63.08;101777.16;5042408;28;49027;-63
2022/11/02 05:52:10;;;;;;;;;6.00;1.67;;;;;13.96;63.65;101775.31;5036247;28;45465;-62
2022/11/02 05:54:36;;;;;;;;;5.00;1.00;;;;;13.95;63.19;101776.16;5046669;28;45688;-63
2022/11/02 05:57:01;;;;;;;;;4.00;2.00;;;;;13.97;63.72;101777.16;5039421;28;45725;-64
2022/11/02 05:59:26;;;;;;;;;7.67;4.00;;;;;13.99;63.67;101769.09;5038387;28;45525;-64
2022/11/02 06:01:52;;;;;;;;;5.00;2.00;;;;;14.01;63.34;101784.41;5037202;28;48897;-62
2022/11/02 06:04:17;;;;;;;;;8.67;4.33;;;;;13.74;63.58;101730.81;5042000;28;45976;-63
2022/11/02 06:06:43;;;;;;;;;5.33;2.33;;;;;14.00;63.72;101782.56;5041198;28;46350;-63
2022/11/02 06:09:08;;;;;;;;;7.67;3.67;;;;;14.03;63.33;101775.50;5037689;28;46389;-62
2022/11/02 06:11:34;;;;;;;;;3.67;2.67;;;;;14.04;63.31;101777.28;5039117;28;45434;-63
2022/11/02 06:13:59;;;;;;;;;7.00;5.33;;;;;14.05;63.58;101784.50;5041085;28;45461;-62
2022/11/02 06:16:24;;;;;;;;;3.00;2.00;;;;;14.08;63.84;101790.88;5040652;28;45713;-64
2022/11/02 06:18:50;;;;;;;;;4.67;2.33;;;;;14.04;63.53;101779.97;5045565;28;45495;-62
2022/11/02 06:21:15;;;;;;;;;3.33;3.00;;;;;14.01;63.61;101775.44;5036610;28;45526;-62
2022/11/02 06:23:42;;;;;;;;;2.67;2.67;;;;;14.12;63.63;101795.50;5048851;28;45858;-63
2022/11/02 06:26:09;;;;;;;;;4.33;2.67;;;;;14.12;63.94;101790.13;5040703;28;45523;-64
2022/11/02 06:28:35;;;;;;;;;8.00;3.67;;;;;14.13;63.60;101793.69;5038152;28;45980;-63
2022/11/02 06:31:00;;;;;;;;;6.00;3.00;;;;;14.12;63.69;101797.25;5034687;28;51658;-63
2022/11/02 06:33:26;;;;;;;;;2.67;2.67;;;;;14.10;63.75;101801.66;5042231;28;46102;-64
2022/11/02 06:35:53;;;;;;;;;9.33;3.67;;;;;14.05;63.68;101801.53;5036729;28;45326;-62
2022/11/02 06:38:18;;;;;;;;;9.00;3.67;;;;;14.06;63.97;101800.69;5038559;28;46008;-63
2022/11/02 06:40:52;;;;;;;;;6.00;4.67;;;;;14.04;63.89;101813.16;5040857;28;45418;-64
2022/11/02 06:43:17;;;;;;;;;7.00;4.33;;;;;14.02;63.72;101793.38;5017166;28;45473;-64
2022/11/02 06:45:43;;;;;;;;;3.00;2.00;;;;;14.04;64.21;101804.16;5038715;28;45350;-63
2022/11/02 06:48:08;;;;;;;;;8.33;2.67;;;;;14.04;63.95;101818.53;5038414;28;46088;-65
2022/11/02 06:50:34;;;;;;;;;9.00;6.00;;;;;14.04;63.85;101817.59;5040837;28;49632;-64
2022/11/02 06:52:59;;;;;;;;;8.00;6.67;;;;;14.06;63.93;101826.66;5045835;28;61866;-63
2022/11/02 06:55:24;;;;;;;;;21.00;15.75;;;;;14.05;63.80;101830.19;5036225;28;45409;-64
2022/11/02 06:57:50;;;;;;;;;11.67;7.67;;;;;14.03;63.97;101830.13;5036981;28;46192;-64
2022/11/02 07:00:18;;;;;;;;;10.67;4.00;;;;;14.07;63.86;101840.09;5036813;28;52223;-65
2022/11/02 07:02:44;;;;;;;;;11.33;5.67;;;;;14.06;64.02;101837.41;5039594;28;47206;-65
2022/11/02 07:05:09;;;;;;;;;12.67;3.00;;;;;14.05;64.01;101828.41;5045123;28;45397;-64
2022/11/02 07:07:35;;;;;;;;;22.50;16.50;;;;;14.08;64.06;101836.56;5041635;28;46270;-63
2022/11/02 07:10:00;;;;;;;;;8.67;4.67;;;;;14.02;63.60;101831.00;5036786;28;45509;-64
2022/11/02 07:12:25;;;;;;;;;5.00;4.00;;;;;13.99;64.22;101831.84;5036713;28;50397;-64
2022/11/02 07:14:51;;;;;;;;;6.67;5.00;;;;;14.02;63.67;101833.69;5025695;28;47502;-62
2022/11/02 07:17:16;;;;;;;;;5.33;5.00;;;;;14.04;64.17;101842.72;5038149;28;64540;-64
2022/11/02 07:19:41;;;;;;;;;3.33;3.33;;;;;13.97;64.05;101841.63;5037190;28;45756;-63
2022/11/02 07:22:07;;;;;;;;;11.00;5.67;;;;;14.04;63.50;101853.47;5049797;28;45698;-63
2022/11/02 07:24:32;;;;;;;;;6.00;3.67;;;;;14.04;63.34;101855.22;5052489;28;45640;-64
2022/11/02 07:26:57;;;;;;;;;6.00;6.00;;;;;14.04;63.77;101856.16;5030555;28;46313;-64
2022/11/02 07:29:23;;;;;;;;;10.00;4.00;;;;;14.05;63.65;101849.91;5034265;28;45474;-64
2022/11/02 07:31:48;;;;;;;;;8.33;6.00;;;;;14.05;63.51;101843.63;5036292;28;45457;-64
2022/11/02 07:34:14;;;;;;;;;6.33;1.00;;;;;14.12;63.59;101857.28;5041017;28;45515;-63
2022/11/02 07:36:39;;;;;;;;;9.00;4.00;;;;;14.12;63.14;101865.34;5041986;28;46310;-64
2022/11/02 07:39:06;;;;;;;;;7.67;2.67;;;;;14.09;63.63;101850.88;5038000;28;46963;-64
2022/11/02 07:41:32;;;;;;;;;7.33;4.00;;;;;14.10;63.68;101855.41;5062390;28;45244;-64
2022/11/02 07:43:58;;;;;;;;;2.33;2.33;;;;;14.07;63.81;101861.59;5056127;28;45068;-64
2022/11/02 07:46:23;;;;;;;;;7.33;5.33;;;;;14.04;64.04;101858.84;5055752;28;45607;-63
2022/11/02 07:48:49;;;;;;;;;8.00;5.00;;;;;13.94;63.37;101838.84;5035899;28;45501;-62
2022/11/02 07:51:14;;;;;;;;;9.00;4.67;;;;;14.07;63.57;101858.91;5025671;28;45478;-63
2022/11/02 07:53:39;;;;;;;;;7.00;3.00;;;;;14.05;64.01;101866.03;5040286;28;46180;-62
2022/11/02 07:56:05;;;;;;;;;7.00;5.00;;;;;14.07;63.37;101866.06;5040019;28;46078;-64
2022/11/02 07:58:31;;;;;;;;;3.00;3.00;;;;;14.10;63.37;101872.44;5041577;28;45536;-63
2022/11/02 08:00:58;;;;;;;;;5.33;3.00;;;;;14.12;63.51;101869.81;5032324;28;45379;-62
2022/11/02 08:03:24;;;;;;;;;8.33;5.00;;;;;14.14;63.53;101876.16;5039602;28;45627;-64
2022/11/02 08:05:49;;;;;;;;;6.33;3.67;;;;;14.15;63.29;101876.16;5042947;28;45434;-64
2022/11/02 08:08:18;;;;;;;;;6.00;4.00;;;;;14.18;63.45;101878.97;5031484;28;45480;-63
2022/11/02 08:10:45;;;;;;;;;8.00;5.00;;;;;14.13;62.94;101861.78;5041161;28;45621;-63
2022/11/02 08:13:13;;;;;;;;;8.00;4.67;;;;;14.18;63.01;101868.19;5046090;28;45426;-64
2022/11/02 08:15:39;;;;;;;;;5.00;3.00;;;;;14.24;62.93;101870.19;5044369;28;45367;-64
2022/11/02 08:18:06;;;;;;;;;6.67;3.67;;;;;14.28;62.90;101872.06;5041016;28;45667;-62
2022/11/02 08:20:34;;;;;;;;;8.00;3.67;;;;;14.25;62.94;101855.84;5040958;28;45307;-64
2022/11/02 08:23:00;;;;;;;;;6.00;4.00;;;;;14.25;62.58;101852.25;5040598;28;45472;-64
2022/11/02 08:25:25;;;;;;;;;8.00;3.00;;;;;14.30;62.23;101861.38;5042981;28;45587;-65
2022/11/02 08:27:51;;;;;;;;;6.67;4.33;;;;;14.31;62.50;101860.50;5029696;28;45657;-64
2022/11/02 08:30:17;;;;;;;;;9.33;4.33;;;;;14.35;62.69;101873.16;5052422;28;45513;-64
2022/11/02 08:32:42;;;;;;;;;4.67;4.00;;;;;14.31;62.65;101861.41;5047386;28;45430;-63
2022/11/02 08:35:08;;;;;;;;;11.33;6.33;;;;;14.38;62.81;101859.81;5047693;28;45339;-64
2022/11/02 08:37:33;;;;;;;;;5.33;4.00;;;;;14.48;62.83;101869.06;5047125;28;45683;-64
2022/11/02 08:39:59;;;;;;;;;5.67;4.67;;;;;14.47;62.81;101849.34;5046859;28;45637;-64
2022/11/02 08:42:24;;;;;;;;;7.33;5.00;;;;;14.65;62.51;101880.31;5043905;28;45449;-64
2022/11/02 08:44:49;;;;;;;;;12.67;8.00;;;;;14.74;62.19;101877.88;5040598;28;45443;-64
2022/11/02 08:47:16;;;;;;;;;7.67;3.00;;;;;14.74;61.77;101865.34;5038457;28;45348;-64
2022/11/02 08:49:42;;;;;;;;;4.33;4.00;;;;;14.76;62.06;101867.16;5047463;28;45464;-64
2022/11/02 08:52:07;;;;;;;;;9.67;5.00;;;;;14.76;62.22;101868.06;5048781;28;45433;-63
2022/11/02 08:54:32;;;;;;;;;6.33;4.00;;;;;14.78;62.31;101874.41;5034428;28;45535;-65
2022/11/02 08:56:58;;;;;;;;;14.00;7.00;;;;;14.73;62.48;101851.84;5034565;28;45615;-66
2022/11/02 08:59:23;;;;;;;;;9.33;4.00;;;;;14.85;62.14;101867.41;5013738;28;45820;-64
2022/11/02 09:01:48;;;;;;;;;8.33;5.33;;;;;14.87;62.36;101858.50;5044761;28;45473;-64
2022/11/02 09:04:14;;;;;;;;;2.00;2.00;;;;;14.93;60.66;101866.75;5032932;28;45339;-64
2022/11/02 09:06:39;;;;;;;;;9.00;5.00;;;;;14.88;61.40;101871.09;5038873;28;45690;-64
2022/11/02 09:09:04;;;;;;;;;13.00;9.67;;;;;14.88;61.72;101868.41;5034465;28;45658;-65
2022/11/02 09:11:30;;;;;;;;;10.00;5.00;;;;;14.88;61.83;101868.41;5034372;28;45488;-64
2022/11/02 09:13:55;;;;;;;;;13.00;7.00;;;;;14.86;62.15;101867.44;5033417;28;46114;-64
2022/11/02 09:16:20;;;;;;;;;6.33;4.33;;;;;14.96;61.94;101859.63;5032457;28;45472;-64
2022/11/02 09:18:46;;;;;;;;;10.00;6.67;;;;;15.03;60.91;101864.28;5024220;28;45683;-65
2022/11/02 09:21:11;;;;;;;;;8.33;4.33;;;;;15.08;60.17;101850.09;5034689;28;45540;-64
2022/11/02 09:23:36;;;;;;;;;10.67;8.33;;;;;15.10;60.14;101842.06;5025348;28;46114;-64
2022/11/02 09:26:02;;;;;;;;;8.33;5.33;;;;;15.21;60.50;101851.31;5030321;28;45402;-63
2022/11/02 09:28:27;;;;;;;;;10.33;8.67;;;;;15.29;60.44;101856.88;5018016;28;45441;-64
2022/11/02 09:30:52;;;;;;;;;7.33;6.33;;;;;15.33;60.11;101850.72;5026875;28;45399;-64
2022/11/02 09:33:18;;;;;;;;;10.00;5.33;;;;;15.29;59.24;101851.50;5027758;28;45489;-64
2022/11/02 09:35:46;;;;;;;;;5.00;4.00;;;;;15.34;58.31;101860.59;5027359;28;45719;-65
2022/11/02 09:38:12;;;;;;;;;4.00;1.33;;;;;15.37;58.62;101852.59;5033922;28;46232;-64
2022/11/02 09:40:42;;;;;;;;;26.75;21.50;;;;;15.43;58.46;101851.84;5031069;28;45655;-63
2022/11/02 09:43:07;;;;;;;;;14.33;6.67;;;;;15.47;58.46;101848.34;5022054;28;46378;-63
2022/11/02 09:45:38;;;;;;;;;8.67;6.67;;;;;15.49;58.48;101849.28;5025727;28;45566;-63
2022/11/02 09:48:14;;;;;;;;;11.67;7.00;;;;;15.46;58.87;101833.06;5013502;28;45666;-64
2022/11/02 09:50:46;;;;;;;;;6.33;6.00;;;;;15.63;58.78;101842.44;5038232;28;45493;-65
2022/11/02 09:53:21;;;;;;;;;7.67;6.00;;;;;15.73;58.60;101850.75;5030848;28;45716;-64
2022/11/02 09:55:52;;;;;;;;;12.00;11.67;;;;;15.76;58.28;101840.97;5030195;28;45637;-65
2022/11/02 09:58:26;;;;;;;;;14.00;7.00;;;;;15.77;58.49;101836.47;5027158;28;45430;-65
2022/11/02 10:00:58;;;;;;;;;14.00;7.67;;;;;15.91;58.12;101848.50;5031670;28;45495;-64
2022/11/02 10:03:26;;;;;;;;;9.67;8.00;;;;;15.93;57.80;101844.03;5022056;28;45531;-64
2022/11/02 10:06:20;;;;;;;;;7.67;6.33;;;;;15.95;57.74;101844.97;5029392;28;45510;-65
2022/11/02 10:09:04;;;;;;;;;14.67;9.67;;;;;16.01;58.32;101845.09;5047771;28;45283;-65
2022/11/02 10:11:41;;;;;;;;;14.50;9.50;;;;;16.08;57.99;101853.34;5023495;28;45466;-64
2022/11/02 10:14:33;;;;;;;;;16.50;15.75;;;;;16.16;57.32;101844.53;5023923;28;46252;-63
2022/11/02 10:17:19;;;;;;;;;15.00;12.67;;;;;16.26;57.03;101837.53;5033347;28;45429;-64
2022/11/02 10:19:51;;;;;;;;;17.33;14.67;;;;;16.30;56.97;101838.50;5043042;28;45514;-64
2022/11/02 10:22:18;;;;;;;;;9.33;6.33;;;;;16.43;57.07;101845.06;5046996;28;45369;-63
2022/11/02 10:24:48;;;;;;;;;10.33;7.33;;;;;16.39;56.63;101836.91;5040779;28;45429;-64
2022/11/02 10:27:42;;;;;;;;;10.33;4.00;;;;;16.41;56.80;101839.63;5035417;28;45539;-65
2022/11/02 10:30:17;;;;;;;;;9.33;5.00;;;;;16.42;56.57;101838.78;5064328;28;45294;-62
2022/11/02 10:32:44;;;;;;;;;7.67;7.00;;;;;16.35;56.78;101824.25;5054351;28;45110;-64
2022/11/02 10:35:30;;;;;;;;;4.00;4.00;;;;;16.43;55.74;101834.28;5059556;28;45258;-64
2022/11/02 10:38:25;;;;;;;;;5.00;3.00;;;;;16.42;56.00;101833.38;5051375;28;45227;-64
2022/11/02 10:41:43;;;;;;;;;9.33;6.33;;;;;16.34;55.95;101822.44;5060479;28;45615;-64
2022/11/02 10:44:18;;;;;;;;;15.67;7.33;;;;;16.50;56.47;101841.59;4988266;28;45243;-62
2022/11/02 10:46:51;;;;;;;;;10.67;8.00;;;;;16.53;55.70;101839.91;5052690;28;45475;-66
2022/11/02 10:49:37;;;;;;;;;11.00;8.33;;;;;16.52;55.38;101835.38;5072655;28;44902;-64
2022/11/02 10:52:03;;;;;;;;;8.00;4.00;;;;;16.55;55.79;101838.13;5059738;28;45182;-65
2022/11/02 10:54:29;;;;;;;;;7.67;4.00;;;;;16.57;55.42;101832.75;5064598;28;45210;-65
2022/11/02 10:56:55;;;;;;;;;11.00;6.33;;;;;16.58;54.72;101839.94;5043805;28;46523;-64
2022/11/02 10:59:24;;;;;;;;;6.67;4.33;;;;;16.59;55.08;101829.19;5055866;28;45262;-65
2022/11/02 11:01:57;;;;;;;;;9.00;4.00;;;;;16.60;54.50;101827.44;5062391;28;46101;-66
2022/11/02 11:04:28;;;;;;;;;3.33;2.67;;;;;16.61;54.33;101825.63;5050834;28;45513;-67
2022/11/02 11:06:57;;;;;;;;;7.00;3.67;;;;;16.65;54.33;101825.72;5050362;28;46385;-65
2022/11/02 11:09:32;;;;;;;;;3.67;3.00;;;;;16.65;53.80;101823.03;5067854;28;45135;-64
2022/11/02 11:12:03;;;;;;;;;8.33;4.33;;;;;16.70;53.77;101820.41;5058203;28;45420;-65
2022/11/02 11:14:50;;;;;;;;;7.33;2.00;;;;;16.74;54.02;101823.16;5056635;28;45224;-65
2022/11/02 11:17:23;;;;;;;;;3.00;2.67;;;;;16.85;53.84;101822.53;5035954;28;46278;-64
2022/11/02 11:19:54;;;;;;;;;4.00;4.00;;;;;16.85;53.74;101820.72;5040130;28;45578;-64
2022/11/02 11:22:29;;;;;;;;;4.67;3.00;;;;;16.88;54.25;101807.28;5041529;28;45705;-65
2022/11/02 11:25:18;;;;;;;;;5.00;2.00;;;;;16.88;53.68;101817.19;5041015;28;45588;-65
2022/11/02 11:27:49;;;;;;;;;12.33;6.33;;;;;16.93;53.58;101816.38;5039233;28;46938;-65
2022/11/02 11:30:23;;;;;;;;;5.00;3.33;;;;;17.03;54.01;101811.13;5039204;28;45472;-64
2022/11/02 11:32:49;;;;;;;;;14.67;10.33;;;;;17.08;53.90;101809.41;5046089;28;45536;-63
2022/11/02 11:35:17;;;;;;;;;8.67;6.67;;;;;17.09;53.09;101801.34;5048313;28;45747;-66
2022/11/02 11:37:53;;;;;;;;;7.33;5.00;;;;;17.09;53.31;101786.91;5043541;28;45442;-67
2022/11/02 11:40:21;;;;;;;;;8.33;5.33;;;;;17.16;52.13;101799.66;5044843;28;45623;-65
2022/11/02 11:42:52;;;;;;;;;2.33;2.00;;;;;17.18;52.20;101787.06;5024943;28;45513;-65